| weather.gov |
| Kissimmee Gateway Airport |
| metric |
| D a t e | Time (est) |
Wind (mph) | Vis. (mi.) | Weather | Sky Cond. | Temperature (ºF) | Relative Humidity | Wind Chill (°F) | Heat Index (°F) | Pressure | Precipitation (in.) | ||||||
|---|---|---|---|---|---|---|---|---|---|---|---|---|---|---|---|---|---|
| Air | Dwpt | 6 hour | altimeter (in) | sea level (mb) | 1 hr | 3 hr | 6 hr | ||||||||||
| Max. | Min. | ||||||||||||||||
| 08 | 22:56 | E 3 | 10.00 | Fair | CLR | 66 | 59 | 78% | NA | NA | 30.19 | NA | |||||
| 08 | 21:56 | E 9 | 10.00 | Fair | CLR | 65 | 59 | 81% | NA | NA | 30.18 | NA | |||||
| 08 | 20:56 | E 10 | 10.00 | Fair | CLR | 66 | 59 | 78% | NA | NA | 30.18 | NA | |||||
| 08 | 19:56 | E 8 | 10.00 | Partly Cloudy | SCT065 | 68 | 59 | 73% | NA | NA | 30.20 | NA | |||||
| 08 | 18:56 | E 8 | 10.00 | Fair | CLR | 69 | 59 | 70% | NA | NA | 30.19 | NA | |||||
| 08 | 17:56 | E 8 | 10.00 | Overcast | FEW060 OVC070 | 70 | 59 | 68% | NA | NA | 30.18 | NA | |||||
| 08 | 16:56 | E 6 | 10.00 | Mostly Cloudy | BKN070 | 72 | 57 | 59% | NA | NA | 30.17 | NA | |||||
| 08 | 15:56 | E 3 | NA | NA | NA | 73 | 56 | 55% | NA | NA | 30.16 | NA | |||||
| 08 | 14:56 | SE 6 | 10.00 | Fair | CLR | 74 | 57 | 56% | NA | NA | 30.15 | 1021.1 | |||||
| 08 | 13:56 | Calm | 10.00 | Fair | CLR | 75 | 57 | 54% | NA | NA | 30.17 | 1021.7 | |||||
| 08 | 12:56 | E 8 | 10.00 | Mostly Cloudy | BKN065 | 74 | 57 | 74 | 54 | 56% | NA | NA | 30.19 | 1022.4 | |||
| 08 | 11:56 | E 3 | 10.00 | Overcast | OVC060 | 72 | 55 | 55% | NA | NA | 30.23 | 1023.7 | |||||
| 08 | 10:56 | E 6 | 10.00 | A Few Clouds | FEW038 | 70 | 56 | 61% | NA | NA | 30.24 | 1024.2 | |||||
| 08 | 09:56 | Calm | 10.00 | A Few Clouds | FEW045 | 68 | 57 | 68% | NA | NA | 30.25 | 1024.3 | |||||
| 08 | 08:56 | Calm | 10.00 | Fair | CLR | 63 | 56 | 78% | NA | NA | 30.24 | 1024.0 | |||||
| 08 | 07:56 | Calm | 10.00 | Mostly Cloudy | BKN045 | 58 | 55 | 90% | NA | NA | 30.22 | 1023.3 | |||||
| 08 | 06:56 | Calm | 10.00 | Overcast | OVC043 | 55 | 53 | 58 | 54 | 93% | NA | NA | 30.21 | 1022.9 | |||
| 08 | 05:56 | Calm | 10.00 | A Few Clouds | FEW043 | 57 | 54 | 90% | NA | NA | 30.19 | 1022.2 | |||||
| 08 | 04:56 | Calm | 10.00 | A Few Clouds | FEW042 | 55 | 53 | 93% | NA | NA | 30.17 | 1021.7 | |||||
| 08 | 03:56 | NE 3 | 10.00 | Fair | CLR | 58 | 54 | 87% | NA | NA | 30.18 | 1021.9 | |||||
| 08 | 02:56 | Calm | 10.00 | Fair | CLR | 57 | 54 | 90% | NA | NA | 30.18 | 1022.0 | |||||
| 08 | 01:56 | Calm | 10.00 | Fair | CLR | 56 | 54 | 93% | NA | NA | 30.19 | 1022.3 | |||||
| 08 | 00:56 | Calm | 10.00 | Fair | CLR | 57 | 54 | 62 | 56 | 90% | NA | NA | 30.19 | 1022.5 | |||
| 07 | 23:56 | Calm | 10.00 | Fair | CLR | 57 | 53 | 87% | NA | NA | 30.20 | 1022.8 | |||||
| 07 | 22:56 | Calm | 10.00 | Fair | CLR | 58 | 53 | 84% | NA | NA | 30.22 | 1023.2 | |||||
| 07 | 21:56 | NE 3 | 10.00 | Fair | CLR | 57 | 52 | 83% | NA | NA | 30.22 | 1023.4 | |||||
| 07 | 20:56 | E 3 | 10.00 | Fair | CLR | 59 | 52 | 78% | NA | NA | 30.23 | 1023.6 | |||||
| 07 | 19:56 | E 7 | 10.00 | Fair | CLR | 61 | 52 | 72% | NA | NA | 30.22 | 1023.4 | |||||
| 07 | 18:56 | E 7 | 10.00 | Fair | CLR | 62 | 52 | 70 | 62 | 70% | NA | NA | 30.21 | 1023.0 | |||
| 07 | 17:56 | Calm | 10.00 | Fair | CLR | 65 | 50 | 59% | NA | NA | 30.20 | 1022.7 | |||||
| 07 | 16:56 | E 6 | 10.00 | Fair | CLR | 68 | 49 | 51% | NA | NA | 30.19 | 1022.5 | |||||
| 07 | 15:56 | E 8 | 10.00 | Fair | CLR | 69 | 50 | 51% | NA | NA | 30.19 | 1022.3 | |||||
| 07 | 14:56 | Vrbl 6 | 10.00 | Fair | CLR | 69 | 50 | 51% | NA | NA | 30.19 | 1022.3 | |||||
| 07 | 13:56 | Vrbl 7 | 10.00 | Fair | CLR | 68 | 48 | 49% | NA | NA | 30.20 | 1022.6 | |||||
| 07 | 12:56 | NE 8 | 10.00 | Fair | CLR | 67 | 47 | 67 | 47 | 49% | NA | NA | 30.22 | 1023.4 | |||
| 07 | 11:56 | NE 6 | 10.00 | Fair | CLR | 65 | 45 | 49% | NA | NA | 30.25 | 1024.5 | |||||
| 07 | 10:56 | N 9 | 10.00 | Fair | CLR | 62 | 43 | 50% | NA | NA | 30.27 | 1025.2 | |||||
| 07 | 09:56 | N 8 | 10.00 | Fair | CLR | 59 | 41 | 51% | NA | NA | 30.29 | 1025.6 | |||||
| 07 | 08:56 | N 9 | 10.00 | Fair | CLR | 57 | 43 | 60% | NA | NA | 30.28 | 1025.4 | |||||
| 07 | 07:56 | N 7 | 10.00 | Fair | CLR | 52 | 44 | 75% | NA | NA | 30.26 | 1024.8 | |||||
| 07 | 06:56 | NW 7 | 10.00 | Fair | CLR | 49 | 43 | 50 | 45 | 80% | 46 | NA | 30.25 | 1024.5 | |||
| 07 | 05:56 | NW 8 | 10.00 | A Few Clouds | FEW043 | 50 | 43 | 77% | 47 | NA | 30.24 | 1024.1 | |||||
| 07 | 04:56 | NW 7 | 10.00 | Overcast | OVC043 | 49 | 44 | 83% | 46 | NA | 30.24 | 1024.0 | |||||
| 07 | 03:56 | NW 7 | 10.00 | Fair | CLR | 47 | 44 | 90% | 44 | NA | 30.23 | 1023.8 | |||||
| 07 | 02:56 | NW 6 | 10.00 | Fair | CLR | 48 | 42 | 80% | 45 | NA | 30.22 | 1023.5 | |||||
| 07 | 01:56 | NW 5 | 10.00 | Fair | CLR | 47 | 44 | 90% | 45 | NA | 30.23 | 1023.5 | |||||
| 07 | 00:56 | N 3 | 10.00 | Fair | CLR | 50 | 41 | 57 | 46 | 71% | NA | NA | 30.23 | 1023.5 | |||
| 06 | 23:56 | NW 3 | 10.00 | Fair | CLR | 49 | 44 | 83% | NA | NA | 30.23 | 1023.8 | |||||
| 06 | 22:56 | Calm | 10.00 | Fair | CLR | 47 | 44 | 90% | NA | NA | 30.24 | 1024.0 | |||||
| 06 | 21:56 | Calm | 10.00 | Fair | CLR | 49 | 42 | 77% | NA | NA | 30.23 | 1023.8 | |||||
| 06 | 20:56 | Calm | 10.00 | Fair | CLR | 52 | 40 | 64% | NA | NA | 30.22 | 1023.5 | |||||
| 06 | 19:56 | N 3 | 10.00 | Fair | CLR | 55 | 38 | 53% | NA | NA | 30.21 | 1023.2 | |||||
| 06 | 18:56 | Calm | 10.00 | Fair | CLR | 57 | 37 | 64 | 57 | 47% | NA | NA | 30.20 | 1022.5 | |||
| 06 | 17:56 | N 5 | 10.00 | Fair | CLR | 59 | 37 | 44% | NA | NA | 30.18 | 1022.0 | |||||
| 06 | 16:56 | N 10 | 10.00 | Fair | CLR | 61 | 35 | 38% | NA | NA | 30.15 | 1021.2 | |||||
| 06 | 15:56 | N 8 | 10.00 | Fair | CLR | 63 | 35 | 35% | NA | NA | 30.13 | 1020.3 | |||||
| 06 | 14:56 | N 9 | 10.00 | Fair | CLR | 63 | 34 | 34% | NA | NA | 30.12 | 1020.1 | |||||
| 06 | 13:56 | N 13 G 20 | 10.00 | Fair | CLR | 63 | 34 | 34% | NA | NA | 30.12 | 1019.9 | |||||
| 06 | 12:56 | N 14 G 21 | 10.00 | Fair | CLR | 64 | 32 | 65 | 54 | 30% | NA | NA | 30.13 | 1020.3 | |||
| 06 | 11:56 | N 14 G 20 | 10.00 | Fair | CLR | 65 | 32 | 29% | NA | NA | 30.15 | 1021.0 | |||||
| 06 | 10:56 | NW 18 G 23 | 10.00 | Fair | CLR | 64 | 35 | 34% | NA | NA | 30.17 | 1021.5 | |||||
| 06 | 09:56 | N 13 | 10.00 | Fair | CLR | 61 | 39 | 44% | NA | NA | 30.17 | 1021.8 | |||||
| 06 | 08:56 | NW 13 G 18 | 10.00 | Fair | CLR | 58 | 41 | 53% | NA | NA | 30.18 | 1021.9 | |||||
| 06 | 07:56 | NW 12 | 10.00 | Fair | CLR | 55 | 41 | 59% | NA | NA | 30.17 | 1021.6 | |||||
| 06 | 06:56 | NW 9 | 10.00 | Fair | CLR | 55 | 41 | 58 | 55 | 59% | NA | NA | 30.15 | 1020.9 | |||
| 06 | 05:56 | NW 12 | 10.00 | Fair | CLR | 57 | 41 | 55% | NA | NA | 30.12 | 1020.0 | |||||
| 06 | 04:56 | NW 12 | 10.00 | Fair | CLR | 57 | 42 | 58% | NA | NA | 30.10 | 1019.3 | |||||
| 06 | 03:56 | NW 13 | 10.00 | Fair | CLR | 58 | 44 | 60% | NA | NA | 30.09 | 1019.1 | |||||
| 06 | 02:56 | NW 10 | 10.00 | Fair | CLR | 57 | 47 | 69% | NA | NA | 30.09 | 1018.9 | |||||
| 06 | 01:56 | NW 6 | 10.00 | Fair | CLR | 56 | 46 | 70% | NA | NA | 30.09 | 1019.0 | |||||
| 06 | 00:56 | NW 9 | 10.00 | Fair | CLR | 57 | 46 | 61 | 56 | 67% | NA | NA | 30.08 | 1018.8 | |||
| 05 | 23:56 | NW 7 | 10.00 | Fair | CLR | 57 | 45 | 64% | NA | NA | 30.10 | 1019.2 | |||||
| D a t e | Time (est) |
Wind (mph) | Vis. (mi.) | Weather | Sky Cond. | Air | Dwpt | Max. | Min. | Relative Humidity | Wind Chill (°F) | Heat Index (°F) | altimeter (in.) | sea level (mb) |
1 hr | 3 hr | 6 hr |
| 6 hour | |||||||||||||||||
| Temperature (ºF) | Pressure | Precipitation (in.) | |||||||||||||||
| National Weather Service Southern Region Headquarters Fort Worth, Texas Disclaimer |
Last Modified: Febuary, 7 2012 Privacy Policy |
|